Redland, Florida
Current Conditions -  °F | °C
As of 10:58 PM on Sunday 25 Jan 2015 (Local Time) from KHST Reporting Station
Clear Clear  
Wind Chill: 56°   Ceiling: Unl
Heat Index: 56°   Visibility: 10mi
Dew Point: 50°   Wind: 2mph
Humidity: 79%   Direction: 260°W
Pressure: 30.06"   Gusts: NA
Location:  25.5222°N, 80.3827°W
Report Text: KHST 260358Z AUTO 26002KT 10SM CLR 14/10 A3006 RMK AO2 SLP182 T01360100
Loading
Personal Weather Stations






























Interactive Weather Map New forecast layout! Learn more

10-Day Weather Forecast

Advertisements
Track Severe Weather on mobile